createdAt,value
2023-05-18T00:01:56.720Z,13.90
2023-05-18T00:04:24.578Z,16.20
2023-05-18T00:06:57.019Z,15.05
2023-05-18T00:09:24.856Z,15.60
2023-05-18T00:11:51.959Z,15.80
2023-05-18T00:19:09.497Z,15.00
2023-05-18T00:21:36.298Z,15.15
2023-05-18T00:24:03.213Z,14.90
2023-05-18T00:28:55.294Z,16.05
2023-05-18T00:31:22.084Z,15.00
2023-05-18T00:33:48.785Z,14.77
2023-05-18T00:36:15.839Z,14.77
2023-05-18T00:38:42.556Z,15.55
2023-05-18T00:41:09.223Z,15.75
2023-05-18T00:43:36.197Z,14.48
2023-05-18T00:46:02.920Z,14.80
2023-05-18T00:48:29.688Z,13.35
2023-05-18T00:53:21.882Z,13.93
2023-05-18T00:55:48.753Z,14.73
2023-05-18T01:00:41.439Z,13.98
2023-05-18T01:03:11.172Z,14.18
2023-05-18T01:05:38.043Z,14.52
2023-05-18T01:08:05.123Z,14.05
2023-05-18T01:10:33.416Z,13.75
2023-05-18T01:13:02.925Z,13.32
2023-05-18T01:26:15.352Z,14.82
2023-05-18T01:31:13.146Z,16.30
2023-05-18T01:33:39.943Z,14.60
2023-05-18T01:36:06.828Z,16.58
2023-05-18T01:38:33.581Z,15.27
2023-05-18T01:41:03.650Z,14.65
2023-05-18T01:46:01.958Z,15.15
2023-05-18T01:48:28.875Z,15.48
2023-05-18T01:58:22.841Z,15.40
2023-05-18T02:00:50.217Z,15.90
2023-05-18T02:03:17.120Z,15.77
2023-05-18T02:05:43.917Z,15.60
2023-05-18T02:10:36.366Z,15.75
2023-05-18T02:13:03.219Z,14.75
2023-05-18T02:15:30.217Z,14.63
2023-05-18T02:17:58.586Z,15.93
2023-05-18T02:20:26.632Z,14.52
2023-05-18T02:22:54.594Z,14.93
2023-05-18T02:25:21.537Z,14.30
2023-05-18T02:27:48.208Z,14.43
2023-05-18T02:30:16.234Z,15.43
2023-05-18T02:32:43.109Z,14.98
2023-05-18T02:35:10.291Z,14.57
2023-05-18T02:40:10.325Z,14.18
2023-05-18T02:42:37.188Z,14.82
2023-05-18T02:47:38.852Z,14.68
2023-05-18T02:50:06.532Z,14.75
2023-05-18T02:57:25.017Z,15.10
2023-05-18T03:02:28.334Z,15.60
2023-05-18T03:04:57.630Z,14.85
2023-05-18T03:07:24.693Z,15.38
2023-05-18T03:12:16.902Z,14.65
2023-05-18T03:14:43.688Z,15.05
2023-05-18T03:17:10.908Z,14.27
2023-05-18T03:19:37.989Z,14.77
2023-05-18T03:22:06.042Z,14.15
2023-05-18T03:27:08.924Z,14.48
2023-05-18T03:29:35.884Z,13.95
2023-05-18T03:36:55.446Z,14.20
2023-05-18T03:41:48.379Z,14.45
2023-05-18T03:44:15.273Z,13.75
2023-05-18T03:46:42.341Z,14.57
2023-05-18T03:49:10.501Z,15.05
2023-05-18T03:51:41.432Z,14.95
2023-05-18T03:54:08.310Z,15.70
2023-05-18T03:56:36.073Z,14.93
2023-05-18T03:59:03.428Z,15.70
2023-05-18T04:06:26.163Z,17.52
2023-05-18T04:11:18.952Z,16.52
2023-05-18T04:13:45.809Z,16.02
2023-05-18T04:16:13.482Z,15.27
2023-05-18T04:18:41.076Z,16.80
2023-05-18T04:21:07.753Z,17.35
2023-05-18T04:23:39.347Z,17.15
2023-05-18T04:26:07.067Z,17.27
2023-05-18T04:28:34.016Z,16.52
2023-05-18T04:31:02.019Z,17.20
2023-05-18T04:33:30.019Z,17.95
2023-05-18T04:35:58.920Z,17.75
2023-05-18T04:40:52.068Z,18.60
2023-05-18T04:43:18.771Z,18.25
2023-05-18T04:48:17.919Z,18.42
2023-05-18T04:50:45.744Z,18.42
2023-05-18T04:53:12.552Z,19.30
2023-05-18T04:55:39.472Z,19.50
2023-05-18T04:58:10.880Z,18.90
2023-05-18T05:00:37.815Z,19.50
2023-05-18T05:03:04.853Z,19.60
2023-05-18T05:05:31.884Z,20.05
2023-05-18T05:07:59.134Z,20.40
2023-05-18T05:10:26.001Z,21.08
2023-05-18T05:12:52.826Z,20.45
2023-05-18T05:17:49.021Z,21.00
2023-05-18T05:20:16.226Z,21.25
2023-05-18T05:29:59.770Z,21.83
2023-05-18T05:32:26.861Z,21.63
2023-05-18T05:34:54.674Z,21.90
2023-05-18T05:37:21.777Z,23.73
2023-05-18T05:39:49.912Z,22.13
2023-05-18T05:42:18.236Z,22.67
2023-05-18T05:49:36.181Z,20.67
2023-05-18T05:52:03.892Z,21.70
2023-05-18T05:56:56.804Z,19.98
2023-05-18T05:59:23.872Z,19.73
2023-05-18T06:01:51.057Z,17.88
2023-05-18T06:04:18.036Z,19.02
2023-05-18T06:06:44.811Z,20.40
2023-05-18T06:11:37.004Z,20.73
2023-05-18T06:14:04.176Z,20.98
2023-05-18T06:18:56.480Z,20.73
2023-05-18T06:21:23.410Z,21.27
2023-05-18T06:23:50.178Z,21.92
2023-05-18T06:26:36.173Z,21.73
2023-05-18T06:29:03.110Z,21.80
2023-05-18T06:32:08.493Z,22.45
2023-05-18T06:37:22.211Z,21.17
2023-05-18T06:39:49.050Z,22.05
2023-05-18T06:42:15.898Z,21.50
2023-05-18T06:44:42.667Z,20.77
2023-05-18T06:47:11.499Z,21.85
2023-05-18T06:49:38.705Z,21.48
2023-05-18T06:52:06.794Z,21.40
2023-05-18T06:54:33.889Z,19.50
2023-05-18T06:57:00.665Z,19.42
2023-05-18T06:59:27.517Z,18.85
2023-05-18T07:01:54.370Z,20.08
2023-05-18T07:04:21.352Z,19.38
2023-05-18T07:06:48.776Z,20.05
2023-05-18T07:09:15.880Z,18.92
2023-05-18T07:11:42.552Z,18.67
2023-05-18T07:14:09.235Z,20.20
2023-05-18T07:16:36.054Z,21.20
2023-05-18T07:19:05.011Z,20.33
2023-05-18T07:21:31.966Z,19.42
2023-05-18T07:23:58.715Z,20.33
2023-05-18T07:26:26.232Z,19.63
2023-05-18T07:33:46.773Z,19.90
2023-05-18T07:36:13.739Z,18.48
2023-05-18T07:38:40.530Z,16.55
2023-05-18T07:41:10.248Z,17.08
2023-05-18T07:46:02.434Z,15.43
2023-05-18T07:48:29.270Z,11.75
2023-05-18T07:50:55.959Z,14.00
2023-05-18T07:53:22.811Z,11.27
2023-05-18T07:55:50.116Z,9.50
2023-05-18T07:58:16.900Z,9.75
2023-05-18T08:00:44.487Z,10.40
2023-05-18T08:03:11.263Z,10.40
2023-05-18T08:05:38.037Z,10.45
2023-05-18T08:08:06.848Z,9.95
2023-05-18T08:10:33.902Z,9.20
2023-05-18T08:13:00.682Z,9.35
2023-05-18T08:15:27.415Z,9.05
2023-05-18T08:17:55.302Z,8.65
2023-05-18T08:27:38.612Z,8.30
2023-05-18T08:30:05.731Z,9.38
2023-05-18T08:32:32.650Z,9.05
2023-05-18T08:37:29.655Z,7.20
2023-05-18T08:39:56.860Z,8.05
2023-05-18T08:42:31.924Z,8.15
2023-05-18T08:45:08.742Z,8.32
2023-05-18T08:47:36.854Z,8.60
2023-05-18T08:50:03.746Z,7.75
2023-05-18T08:52:33.309Z,6.53
2023-05-18T08:57:29.660Z,8.40
2023-05-18T08:59:56.971Z,8.48
2023-05-18T09:02:24.500Z,6.57
2023-05-18T09:04:52.071Z,6.53
2023-05-18T09:07:19.479Z,6.68
2023-05-18T09:09:46.800Z,6.72
2023-05-18T09:12:13.580Z,6.68
2023-05-18T09:14:41.973Z,6.15
2023-05-18T09:19:35.416Z,4.88
2023-05-18T09:22:02.225Z,5.50
2023-05-18T09:24:29.000Z,5.30
2023-05-18T09:26:55.965Z,5.90
2023-05-18T09:29:24.324Z,4.90
2023-05-18T09:34:19.462Z,5.85
2023-05-18T09:36:57.186Z,6.05
2023-05-18T09:39:23.942Z,5.60
2023-05-18T09:41:55.135Z,4.88
2023-05-18T09:49:23.270Z,5.88
2023-05-18T09:51:50.106Z,6.10
2023-05-18T09:54:16.851Z,6.40
2023-05-18T09:59:13.235Z,7.80
2023-05-18T10:01:58.542Z,6.78
2023-05-18T10:12:17.363Z,5.53
2023-05-18T10:14:44.663Z,5.05
2023-05-18T10:17:16.609Z,3.10
2023-05-18T10:22:09.959Z,2.45
2023-05-18T10:24:39.176Z,3.50
2023-05-18T10:29:34.154Z,3.30
2023-05-18T10:32:06.021Z,3.50
2023-05-18T10:34:33.966Z,2.88
2023-05-18T10:37:04.320Z,2.00
2023-05-18T10:39:34.361Z,1.70
2023-05-18T10:42:02.514Z,2.00
2023-05-18T10:44:29.508Z,2.72
2023-05-18T10:49:25.258Z,2.28
2023-05-18T10:51:53.374Z,2.90
2023-05-18T10:54:21.462Z,3.20
2023-05-18T10:59:14.397Z,3.70
2023-05-18T11:01:44.676Z,3.67
2023-05-18T11:04:11.898Z,3.35
2023-05-18T11:09:04.879Z,4.03
2023-05-18T11:11:50.369Z,4.05
2023-05-18T11:16:50.175Z,3.08
2023-05-18T11:19:17.092Z,3.05
2023-05-18T11:21:44.283Z,4.70
2023-05-18T11:29:26.241Z,3.58
2023-05-18T11:31:54.523Z,3.92
2023-05-18T11:34:41.083Z,3.60
2023-05-18T11:37:13.153Z,2.83
2023-05-18T11:39:51.613Z,3.33
2023-05-18T11:47:32.497Z,3.33
2023-05-18T11:50:14.935Z,3.80
2023-05-18T12:02:56.911Z,3.30
2023-05-18T12:05:23.965Z,3.20
2023-05-18T12:07:54.433Z,3.08
2023-05-18T12:10:21.550Z,3.90
2023-05-18T12:15:21.202Z,3.35
2023-05-18T12:17:48.850Z,3.22
2023-05-18T12:20:16.750Z,3.15
2023-05-18T12:22:44.548Z,3.10
2023-05-18T12:25:11.649Z,3.30
2023-05-18T12:27:40.075Z,3.40
2023-05-18T12:30:14.067Z,2.67
2023-05-18T12:40:12.353Z,2.78
2023-05-18T12:42:39.050Z,2.72
2023-05-18T12:45:07.006Z,3.00
2023-05-18T12:47:41.053Z,3.10
2023-05-18T12:50:08.153Z,3.70
2023-05-18T12:52:34.867Z,4.45
2023-05-18T12:57:31.209Z,3.90
2023-05-18T12:59:58.242Z,4.15
2023-05-18T13:02:28.525Z,3.67
2023-05-18T13:05:09.988Z,3.42
2023-05-18T13:07:40.990Z,3.13
2023-05-18T13:10:15.751Z,3.40
2023-05-18T13:12:43.389Z,3.33
2023-05-18T13:15:14.111Z,2.90
2023-05-18T13:17:48.809Z,2.90
2023-05-18T13:20:16.100Z,3.70
2023-05-18T13:22:44.463Z,3.05
2023-05-18T13:27:37.115Z,2.88
2023-05-18T13:30:03.999Z,2.85
2023-05-18T13:32:31.189Z,2.20
2023-05-18T13:34:58.152Z,3.00
2023-05-18T13:37:25.116Z,2.65
2023-05-18T13:39:52.023Z,2.22
2023-05-18T13:42:21.398Z,2.60
2023-05-18T13:44:48.366Z,2.00
2023-05-18T13:47:15.039Z,2.80
2023-05-18T13:49:41.725Z,2.33
2023-05-18T13:52:08.516Z,2.10
2023-05-18T13:54:35.295Z,2.42
2023-05-18T13:59:27.980Z,2.47
2023-05-18T14:01:54.819Z,2.80
2023-05-18T14:04:21.507Z,2.60
2023-05-18T14:06:48.357Z,3.00
2023-05-18T14:09:17.371Z,2.90
2023-05-18T14:11:44.028Z,2.70
2023-05-18T14:14:11.314Z,2.63
2023-05-18T14:16:38.272Z,3.25
2023-05-18T14:19:05.104Z,1.63
2023-05-18T14:21:32.075Z,2.58
2023-05-18T14:24:03.892Z,3.20
2023-05-18T14:26:30.803Z,2.95
2023-05-18T14:28:57.602Z,2.67
2023-05-18T14:31:24.298Z,3.47
2023-05-18T14:33:51.304Z,4.00
2023-05-18T14:36:19.963Z,2.95
2023-05-18T14:38:48.612Z,2.40
2023-05-18T14:41:15.414Z,4.07
2023-05-18T14:43:42.073Z,3.65
2023-05-18T14:46:09.186Z,2.97
2023-05-18T14:48:36.109Z,3.13
2023-05-18T14:51:03.043Z,3.15
2023-05-18T14:53:29.867Z,2.67
2023-05-18T14:58:22.535Z,2.60
2023-05-18T15:00:49.317Z,3.60
2023-05-18T15:08:09.862Z,2.97
2023-05-18T15:10:36.630Z,3.03
2023-05-18T15:13:03.430Z,2.58
2023-05-18T15:15:30.073Z,2.90
2023-05-18T15:17:56.934Z,3.83
2023-05-18T15:20:26.972Z,3.28
2023-05-18T15:22:53.737Z,3.42
2023-05-18T15:25:21.078Z,3.95
2023-05-18T15:27:49.084Z,3.42
2023-05-18T15:30:15.847Z,3.20
2023-05-18T15:32:45.784Z,3.10
2023-05-18T15:35:12.506Z,2.33
2023-05-18T15:37:39.233Z,2.72
2023-05-18T15:47:26.300Z,3.70
2023-05-18T15:49:53.768Z,3.42
2023-05-18T15:52:21.415Z,3.47
2023-05-18T15:54:48.098Z,2.85
2023-05-18T15:57:14.903Z,3.15
2023-05-18T15:59:41.557Z,3.20
2023-05-18T16:11:50.366Z,3.10
2023-05-18T16:14:17.091Z,2.30
2023-05-18T16:16:43.830Z,2.72
2023-05-18T16:19:10.760Z,2.45
2023-05-18T16:21:37.527Z,3.67
2023-05-18T16:28:56.069Z,3.13
2023-05-18T16:31:22.864Z,2.25
2023-05-18T16:33:49.611Z,3.08
2023-05-18T16:36:16.534Z,4.00
2023-05-18T16:41:08.838Z,2.80
2023-05-18T16:43:35.921Z,3.47
2023-05-18T16:46:02.704Z,3.35
2023-05-18T16:48:29.560Z,2.03
2023-05-18T16:51:02.369Z,3.53
2023-05-18T16:53:29.059Z,3.28
2023-05-18T16:55:55.839Z,3.33
2023-05-18T16:58:22.448Z,3.40
2023-05-18T17:03:17.462Z,2.78
2023-05-18T17:05:44.400Z,3.05
2023-05-18T17:08:11.290Z,2.10
2023-05-18T17:10:38.186Z,3.38
2023-05-18T17:13:04.982Z,3.63
2023-05-18T17:15:32.005Z,3.28
2023-05-18T17:20:24.732Z,3.05
2023-05-18T17:22:51.477Z,3.38
2023-05-18T17:27:44.529Z,3.10
2023-05-18T17:30:11.687Z,2.90
2023-05-18T17:32:41.407Z,2.67
2023-05-18T17:40:02.424Z,3.03
2023-05-18T17:42:30.246Z,2.33
2023-05-18T17:44:56.922Z,3.72
2023-05-18T17:49:50.030Z,3.40
2023-05-18T17:52:17.279Z,2.78
2023-05-18T17:54:43.996Z,3.55
2023-05-18T17:57:11.026Z,3.40
2023-05-18T17:59:37.757Z,3.85
2023-05-18T18:02:04.617Z,3.00
2023-05-18T18:04:31.263Z,2.78
2023-05-18T18:06:58.716Z,3.40
2023-05-18T18:11:51.010Z,2.45
2023-05-18T18:14:17.863Z,2.47
2023-05-18T18:21:36.127Z,2.85
2023-05-18T18:28:58.142Z,2.90
2023-05-18T18:33:53.147Z,2.67
2023-05-18T18:36:19.919Z,2.63
2023-05-18T18:38:47.287Z,2.38
2023-05-18T18:41:17.534Z,2.60
2023-05-18T18:43:44.430Z,2.33
2023-05-18T18:46:11.227Z,2.70
2023-05-18T18:48:40.858Z,2.55
2023-05-18T18:51:07.632Z,2.30
2023-05-18T18:55:59.846Z,2.50
2023-05-18T18:58:26.748Z,2.15
2023-05-18T19:00:53.541Z,2.75
2023-05-18T19:03:21.923Z,2.92
2023-05-18T19:05:49.316Z,2.35
2023-05-18T19:10:42.422Z,2.80
2023-05-18T19:13:09.248Z,2.33
2023-05-18T19:18:02.694Z,2.25
2023-05-18T19:20:29.600Z,2.70
2023-05-18T19:27:56.881Z,2.83
2023-05-18T19:30:23.804Z,2.95
2023-05-18T19:32:51.194Z,2.83
2023-05-18T19:35:20.001Z,2.95
2023-05-18T19:37:47.116Z,2.75
2023-05-18T19:40:16.901Z,2.85
2023-05-18T19:52:29.820Z,2.60
2023-05-18T19:54:57.739Z,3.17
2023-05-18T20:09:41.636Z,2.97
2023-05-18T20:12:12.980Z,3.05
2023-05-18T20:19:33.610Z,3.30
2023-05-18T20:22:00.742Z,3.40
2023-05-18T20:24:27.531Z,3.78
2023-05-18T20:26:54.277Z,3.13
2023-05-18T20:29:21.006Z,3.50
2023-05-18T20:31:47.848Z,3.22
2023-05-18T20:34:14.628Z,3.60
2023-05-18T20:36:41.361Z,2.80
2023-05-18T20:44:02.160Z,3.95
2023-05-18T20:46:31.179Z,3.60
2023-05-18T20:48:58.044Z,3.67
2023-05-18T20:51:24.888Z,3.72
2023-05-18T20:53:51.861Z,3.83
2023-05-18T20:58:58.224Z,3.47
2023-05-18T21:01:28.802Z,3.28
2023-05-18T21:06:24.996Z,3.95
2023-05-18T21:08:52.622Z,3.28
2023-05-18T21:16:10.887Z,3.17
2023-05-18T21:18:37.909Z,3.58
2023-05-18T21:23:30.321Z,3.17
2023-05-18T21:25:57.134Z,3.38
2023-05-18T21:30:52.391Z,3.60
2023-05-18T21:33:19.416Z,3.20
2023-05-18T21:47:53.387Z,3.63
2023-05-18T21:50:20.145Z,3.63
2023-05-18T21:52:47.000Z,4.00
2023-05-18T21:55:13.631Z,3.70
2023-05-18T21:57:40.606Z,3.80
2023-05-18T22:00:07.670Z,4.20
2023-05-18T22:05:05.237Z,4.05
2023-05-18T22:07:31.940Z,3.90
2023-05-18T22:09:58.580Z,4.32
2023-05-18T22:12:25.275Z,4.18
2023-05-18T22:14:52.112Z,4.75
2023-05-18T22:17:18.849Z,4.35
2023-05-18T22:22:16.511Z,5.20
2023-05-18T22:24:49.944Z,4.82
2023-05-18T22:29:42.094Z,5.60
2023-05-18T22:32:08.866Z,5.47
2023-05-18T22:34:35.650Z,6.18
2023-05-18T22:37:02.421Z,5.38
2023-05-18T22:39:29.097Z,5.80
2023-05-18T22:41:56.098Z,6.05
2023-05-18T22:44:22.852Z,5.38
2023-05-18T22:46:49.639Z,5.80
2023-05-18T22:49:16.880Z,6.10
2023-05-18T22:51:43.637Z,5.20
2023-05-18T22:54:10.320Z,6.57
2023-05-18T22:56:36.985Z,6.18
2023-05-18T22:59:03.749Z,5.88
2023-05-18T23:01:31.315Z,6.18
2023-05-18T23:08:48.835Z,7.13
2023-05-18T23:13:43.820Z,6.53
2023-05-18T23:16:10.698Z,6.65
2023-05-18T23:18:38.817Z,5.97
2023-05-18T23:23:30.979Z,5.80
2023-05-18T23:25:57.760Z,5.90
2023-05-18T23:30:50.056Z,6.78
2023-05-18T23:33:17.127Z,6.70
2023-05-18T23:40:45.117Z,6.95
2023-05-18T23:43:12.101Z,6.20
2023-05-18T23:45:39.013Z,6.78
2023-05-18T23:48:06.026Z,6.15
2023-05-18T23:50:33.060Z,6.30
2023-05-18T23:53:01.276Z,7.30
2023-05-18T23:55:28.043Z,6.90
2023-05-18T23:57:56.187Z,7.93
